Ruth, Nevada
Current Conditions -  °F | °C
As of 9:53 AM on Tuesday 27 Jan 2015 (Local Time) from KELY Reporting Station
Overcast Overcast  
Wind Chill:   Ceiling: 4100
Heat Index:   Visibility: 10mi
Dew Point:   Wind: 17mph
Humidity: 82%   Direction: 200°SSW
Pressure: 30.24"   Gusts: NA
Location:  39.28°N, 114.99°W
Report Text: KELY 271753Z AUTO 20015KT 10SM FEW026 OVC041 05/02 A3024 RMK AO2 SLP230 60002 T00500022 10061 20017 53006
Loading
Personal Weather Stations






























Interactive Weather Map New forecast layout! Learn more

10-Day Weather Forecast

Advertisements
Track Severe Weather on mobile